CDA weather

La Esmeralda Airport
Candelaria, Valle del Cauca Department, Colombia

Public forecast

Using degrees Celsius for public forecast. Weather courtesy of forecast.io.

METAR (pilot weather report)

Closest report is Alfonso Bonilla Aragon International Airport, 9.9 nm (18.3 km) N. Retrieved 2019/08/22 08:00 UTC (13 minutes ago):

SKCL 220800Z VRB02KT 9999 FEW020 17/15 A3002 NOSIG

TAF (pilot weather forecast)

Closest forecast is Alfonso Bonilla Aragon International Airport, 9.9 nm (18.3 km) N. Retrieved 2019/08/22 06:42 UTC (2 hours ago):

TAF SKCL 220430Z 2206/2306 04007KT 9999 FEW030 SCT120 PROB40 TEMPO 2209/2212 6000 VCFG BECMG 2215/2217 35012KT TX35/2219Z TN18/2211Z